KEVV/EVV METAR and TAF weather

Enter ICAO airport designator
Station Type Date Time Source
KEVV METAR 2022/12/05 12:54 UTC NOAA

KEVV 051254Z 00000KT 10SM OVC044 02/M01 A3003 RMK AO2 SLP173 T00221011


Station Type Date Time Source
KEVV Decoded METAR 2022/12/05 12:54 UTC NOAA

EVANSVILLE REGIONAL, IN, United States (KEVV) 38-02N 087-32W 117M
Dec 05, 2022 - 07:54 AM EST / 2022.12.05 1254 UTC
Wind: Calm:0
Visibility: 10 mile(s):0
Sky conditions: overcast
Temperature: 36.0 F (2.2 C)
Dew Point: 30.0 F (-1.1 C)
Relative Humidity: 78%
Pressure (altimeter): 30.03 in. Hg (1016 hPa)
ob: KEVV 051254Z 00000KT 10SM OVC044 02/M01 A3003 RMK AO2 SLP173 T00221011
cycle: 13

Station Type Date Time Source
KEVV TAF 2022/12/05 12:22 UTC NOAA

TAF KEVV 051120Z 0512/0612 VRB03KT P6SM OVC050
FM051500 16005KT P6SM OVC025
FM051900 17007KT P6SM OVC015
FM052100 16006KT 6SM -DZ BR OVC012
FM060000 15005KT 5SM BR VCSH OVC006
FM060400 VRB03KT 3SM BR VCSH OVC003

Example: see airport list